Time;durP1;ratioP1;P1;durP2;ratioP2;P2;SDS_P1;SDS_P2;PMS_P1;PMS_P2;Temp;Humidity;BMP_temperature;BMP_pressure;BME280_temperature;BME280_humidity;BME280_pressure;Samples;Min_cycle;Max_cycle;Signal;HPM_P1;HPM_P2
2022/09/08 00:02:15;;;;;;;3.92;2.95;;;19.40;99.20;;;;;;5050151;28;20029;-75
2022/09/08 00:04:41;;;;;;;7.93;3.63;;;19.30;99.20;;;;;;5050211;28;20086;-74
2022/09/08 00:07:07;;;;;;;5.82;3.70;;;19.30;99.30;;;;;;5050485;28;20116;-74
2022/09/08 00:09:33;;;;;;;6.85;3.38;;;19.50;99.30;;;;;;5050197;28;20114;-74
2022/09/08 00:12:01;;;;;;;6.45;3.38;;;19.40;99.40;;;;;;5049608;28;20037;-74
2022/09/08 00:14:28;;;;;;;6.00;3.47;;;19.40;99.40;;;;;;5036076;28;20053;-75
2022/09/08 00:16:53;;;;;;;6.70;3.80;;;19.40;99.70;;;;;;5049936;28;20030;-75
2022/09/08 00:19:19;;;;;;;7.57;4.55;;;19.20;99.90;;;;;;5049677;28;20031;-75
2022/09/08 00:21:44;;;;;;;9.13;4.32;;;19.30;99.90;;;;;;5023495;28;20024;-75
2022/09/08 00:24:10;;;;;;;4.50;4.00;;;19.10;99.90;;;;;;5049954;28;20048;-75
2022/09/08 00:26:35;;;;;;;4.65;4.05;;;19.00;99.90;;;;;;5049645;28;20071;-75
2022/09/08 00:29:01;;;;;;;6.03;3.35;;;19.00;99.90;;;;;;5048595;28;20020;-75
2022/09/08 00:31:26;;;;;;;5.18;3.97;;;18.90;99.90;;;;;;5049855;28;20049;-75
2022/09/08 00:33:52;;;;;;;7.43;3.25;;;18.90;99.90;;;;;;5049831;28;20440;-75
2022/09/08 00:36:18;;;;;;;5.50;3.85;;;18.80;99.90;;;;;;5047615;28;20033;-75
2022/09/08 00:38:50;;;;;;;8.25;3.90;;;19.00;99.90;;;;;;5029549;28;20053;-75
2022/09/08 00:41:17;;;;;;;6.55;3.65;;;18.70;99.90;;;;;;5037708;28;20423;-75
2022/09/08 00:43:45;;;;;;;5.63;3.47;;;18.70;99.90;;;;;;5033860;28;20422;-76
2022/09/08 00:46:14;;;;;;;5.50;2.60;;;18.70;99.90;;;;;;5029332;28;20021;-75
2022/09/08 00:48:54;;;;;;;5.45;2.53;;;18.70;99.90;;;;;;5039671;28;20430;-75
2022/09/08 00:51:21;;;;;;;4.63;2.03;;;18.70;99.90;;;;;;5029012;28;20037;-75
2022/09/08 00:53:48;;;;;;;6.53;2.42;;;18.70;99.90;;;;;;5033252;28;20621;-75
2022/09/08 00:56:15;;;;;;;6.78;2.83;;;19.30;99.90;;;;;;5029169;28;20474;-75
2022/09/08 00:58:41;;;;;;;9.65;3.05;;;18.40;99.90;;;;;;5029475;28;20053;-74
2022/09/08 01:01:07;;;;;;;9.65;2.95;;;18.50;99.90;;;;;;5029205;28;20025;-75
2022/09/08 01:03:33;;;;;;;4.63;2.30;;;18.60;99.90;;;;;;5029103;28;20040;-75
2022/09/08 01:06:21;;;;;;;8.18;3.28;;;18.60;99.90;;;;;;5032141;28;20025;-74
2022/09/08 01:14:55;;;;;;;7.97;3.72;;;18.40;99.90;;;;;;5026379;28;20099;-75
2022/09/08 01:17:26;;;;;;;7.40;3.78;;;18.30;99.90;;;;;;5028629;28;20034;-74
2022/09/08 01:19:53;;;;;;;8.05;3.63;;;18.30;99.90;;;;;;5028626;28;20044;-75
2022/09/08 01:22:30;;;;;;;7.50;3.72;;;18.30;99.90;;;;;;5028523;28;20026;-75
2022/09/08 01:24:58;;;;;;;9.23;4.03;;;18.30;99.90;;;;;;5042761;28;20031;-75
2022/09/08 01:27:29;;;;;;;7.18;3.83;;;18.20;99.90;;;;;;5048724;28;20045;-75
2022/09/08 01:30:00;;;;;;;6.25;3.50;;;18.90;99.90;;;;;;5048956;28;20032;-74
2022/09/08 01:32:30;;;;;;;8.32;3.65;;;18.10;99.90;;;;;;5041925;28;20490;-74
2022/09/08 01:34:55;;;;;;;12.48;4.80;;;19.10;99.90;;;;;;5022624;28;20236;-74
2022/09/08 01:37:21;;;;;;;8.55;4.20;;;18.10;99.90;;;;;;5045223;28;20569;-75
2022/09/08 01:39:46;;;;;;;10.20;4.43;;;18.20;99.90;;;;;;5048645;28;20025;-75
2022/09/08 01:42:12;;;;;;;6.95;4.88;;;18.20;99.90;;;;;;5048027;28;20025;-75
2022/09/08 01:44:37;;;;;;;9.55;4.75;;;18.10;99.90;;;;;;5048789;28;20101;-75
2022/09/08 01:47:03;;;;;;;7.22;4.00;;;18.10;99.90;;;;;;5048595;28;20024;-75
2022/09/08 01:49:29;;;;;;;8.77;3.83;;;18.20;99.90;;;;;;5043668;28;20025;-75
2022/09/08 01:51:54;;;;;;;5.72;4.35;;;18.00;99.90;;;;;;5041472;28;20119;-75
2022/09/08 01:54:20;;;;;;;7.03;4.53;;;18.10;99.90;;;;;;5047960;28;20032;-72
2022/09/08 01:56:45;;;;;;;10.10;4.47;;;18.70;99.90;;;;;;5047206;28;20316;-72
2022/09/08 01:59:11;;;;;;;10.18;4.75;;;18.00;99.90;;;;;;5047870;28;20048;-75
2022/09/08 02:01:37;;;;;;;7.38;4.45;;;18.00;99.90;;;;;;5048384;28;20029;-76
2022/09/08 02:04:02;;;;;;;10.27;6.07;;;18.00;99.90;;;;;;5048335;28;20032;-77
2022/09/08 02:06:28;;;;;;;9.85;5.65;;;17.80;99.90;;;;;;5047173;28;20096;-77
2022/09/08 02:08:54;;;;;;;5.95;4.03;;;17.90;99.90;;;;;;5048366;28;20043;-76
2022/09/08 02:11:20;;;;;;;8.15;5.45;;;18.20;99.90;;;;;;5047463;28;20060;-77
2022/09/08 02:13:45;;;;;;;9.70;4.72;;;17.70;99.90;;;;;;5045798;28;20088;-77
2022/09/08 02:16:11;;;;;;;7.78;4.45;;;17.70;99.90;;;;;;5040634;28;20110;-76
2022/09/08 02:18:41;;;;;;;10.55;5.35;;;17.70;99.90;;;;;;5047980;28;20029;-76
2022/09/08 02:21:08;;;;;;;10.02;5.18;;;17.40;99.90;;;;;;5048050;28;20032;-76
2022/09/08 02:23:35;;;;;;;7.60;5.03;;;17.60;99.90;;;;;;5052394;28;20134;-77
2022/09/08 02:26:00;;;;;;;6.93;4.57;;;17.30;99.90;;;;;;5054487;28;20032;-76
2022/09/08 02:28:26;;;;;;;8.45;4.75;;;17.40;99.90;;;;;;5052789;28;20029;-76
2022/09/08 02:30:57;;;;;;;9.88;5.50;;;17.20;99.90;;;;;;5054495;28;20112;-77
2022/09/08 02:33:23;;;;;;;11.88;6.10;;;17.20;99.90;;;;;;5054181;28;20389;-75
2022/09/08 02:35:49;;;;;;;11.65;6.03;;;16.90;99.90;;;;;;5054568;28;20451;-76
2022/09/08 02:38:15;;;;;;;11.55;5.40;;;17.20;99.90;;;;;;5055030;28;20131;-76
2022/09/08 02:40:40;;;;;;;9.07;5.72;;;18.10;99.90;;;;;;5054815;28;20028;-76
2022/09/08 02:43:06;;;;;;;8.77;5.60;;;17.10;99.90;;;;;;5055333;28;20044;-76
2022/09/08 02:45:32;;;;;;;9.90;6.28;;;17.10;99.90;;;;;;5040066;28;20466;-76
2022/09/08 02:47:58;;;;;;;8.73;5.30;;;17.80;99.90;;;;;;5055300;28;20486;-76
2022/09/08 02:50:24;;;;;;;7.32;5.55;;;17.10;99.90;;;;;;5054320;28;20052;-76
2022/09/08 02:52:49;;;;;;;10.98;5.78;;;17.10;99.90;;;;;;5054706;28;20060;-75
2022/09/08 02:55:15;;;;;;;10.25;5.82;;;16.90;99.90;;;;;;5042418;28;20466;-76
2022/09/08 02:57:40;;;;;;;9.13;5.45;;;17.10;99.90;;;;;;5036471;28;20068;-75
2022/09/08 03:00:06;;;;;;;7.63;5.50;;;17.10;99.90;;;;;;5055167;28;20223;-75
2022/09/08 03:02:32;;;;;;;10.00;5.38;;;17.30;99.90;;;;;;5051764;28;20396;-75
2022/09/08 03:04:58;;;;;;;9.88;5.55;;;17.30;99.90;;;;;;5043207;28;20009;-75
2022/09/08 03:07:23;;;;;;;13.50;6.55;;;17.30;99.90;;;;;;5035876;28;20056;-75
2022/09/08 03:09:51;;;;;;;8.00;5.57;;;17.30;99.90;;;;;;5054512;28;20053;-75
2022/09/08 03:12:16;;;;;;;7.97;6.05;;;17.30;99.90;;;;;;5054267;28;20037;-75
2022/09/08 03:14:42;;;;;;;13.10;6.15;;;17.30;99.90;;;;;;5052920;28;20445;-75
2022/09/08 03:17:08;;;;;;;13.63;6.97;;;17.20;99.90;;;;;;5042248;28;20045;-75
2022/09/08 03:19:33;;;;;;;10.30;6.05;;;17.30;99.90;;;;;;5034093;28;20026;-75
2022/09/08 03:21:59;;;;;;;9.27;6.00;;;17.40;99.90;;;;;;5034607;28;20025;-75
2022/09/08 03:24:25;;;;;;;8.82;4.93;;;17.20;99.90;;;;;;5045330;28;20043;-75
2022/09/08 03:26:51;;;;;;;9.70;5.97;;;17.20;99.90;;;;;;5054501;28;20025;-76
2022/09/08 03:29:16;;;;;;;9.68;5.30;;;17.30;99.90;;;;;;5054615;28;20402;-76
2022/09/08 03:31:42;;;;;;;11.27;4.75;;;17.00;99.90;;;;;;5054317;28;20036;-75
2022/09/08 03:34:07;;;;;;;8.88;4.68;;;17.20;99.90;;;;;;5051516;28;20025;-75
2022/09/08 03:36:33;;;;;;;11.48;5.95;;;17.20;99.90;;;;;;5043761;28;20037;-76
2022/09/08 03:38:58;;;;;;;7.50;5.20;;;18.30;99.90;;;;;;5043279;28;20059;-75
2022/09/08 03:41:24;;;;;;;8.93;5.13;;;17.20;99.90;;;;;;5044684;28;20544;-75
2022/09/08 03:43:50;;;;;;;10.30;4.85;;;17.20;99.90;;;;;;5050927;28;20025;-75
2022/09/08 03:46:17;;;;;;;9.38;3.90;;;17.30;99.90;;;;;;5051357;28;20472;-75
2022/09/08 03:48:43;;;;;;;9.65;5.22;;;17.20;99.90;;;;;;5050715;28;20064;-75
2022/09/08 03:51:17;;;;;;;7.63;3.97;;;17.30;99.90;;;;;;5050814;28;20067;-75
2022/09/08 03:53:44;;;;;;;10.68;4.57;;;18.00;99.90;;;;;;5032003;28;20030;-75
2022/09/08 03:56:11;;;;;;;7.70;5.22;;;17.20;99.90;;;;;;5023065;28;20041;-75
2022/09/08 03:58:37;;;;;;;7.20;4.47;;;17.30;99.90;;;;;;5042708;28;20451;-75
2022/09/08 04:01:17;;;;;;;7.55;5.30;;;17.20;99.90;;;;;;5049183;28;20021;-75
2022/09/08 04:03:43;;;;;;;11.45;4.07;;;17.20;99.90;;;;;;5050719;28;20029;-75
2022/09/08 04:06:09;;;;;;;6.68;4.00;;;17.20;99.90;;;;;;5050687;28;20029;-75
2022/09/08 04:08:35;;;;;;;7.70;4.43;;;19.20;99.90;;;;;;5051112;28;20489;-75
2022/09/08 04:11:00;;;;;;;7.35;5.05;;;17.30;99.90;;;;;;5050626;28;20036;-75
2022/09/08 04:13:27;;;;;;;8.32;6.55;;;17.40;99.90;;;;;;5050582;28;20045;-76
2022/09/08 04:15:53;;;;;;;9.82;5.78;;;17.30;99.90;;;;;;5047909;28;20500;-75
2022/09/08 04:18:18;;;;;;;11.65;7.25;;;17.30;99.90;;;;;;5050199;28;20031;-75
2022/09/08 04:20:44;;;;;;;10.52;6.10;;;17.00;99.90;;;;;;5049423;28;20354;-76
2022/09/08 04:23:10;;;;;;;9.82;6.68;;;17.40;99.90;;;;;;5048725;28;20359;-76
2022/09/08 04:25:36;;;;;;;9.15;5.72;;;17.30;99.90;;;;;;5050736;28;20035;-75
2022/09/08 04:28:02;;;;;;;11.65;5.38;;;17.40;99.90;;;;;;5050537;28;20565;-75
2022/09/08 04:30:27;;;;;;;7.95;3.97;;;17.40;99.90;;;;;;5048746;28;20028;-75
2022/09/08 04:32:53;;;;;;;7.97;3.85;;;17.40;99.90;;;;;;5049947;28;20419;-75
2022/09/08 04:35:19;;;;;;;6.28;3.67;;;17.50;99.90;;;;;;5050097;28;20017;-75
2022/09/08 04:37:44;;;;;;;5.45;3.58;;;17.20;99.90;;;;;;5048689;28;20040;-75
2022/09/08 04:40:10;;;;;;;5.90;3.40;;;17.20;99.90;;;;;;5019951;28;20105;-75
2022/09/08 04:42:36;;;;;;;9.20;3.58;;;17.20;99.90;;;;;;5050559;28;20408;-75
2022/09/08 04:45:03;;;;;;;5.03;3.72;;;17.70;99.90;;;;;;5049786;28;20016;-75
2022/09/08 04:47:29;;;;;;;7.13;3.75;;;17.20;99.90;;;;;;5049555;28;20073;-75
2022/09/08 04:49:55;;;;;;;9.38;4.13;;;17.20;99.90;;;;;;5049953;28;20465;-75
2022/09/08 04:52:24;;;;;;;7.88;4.15;;;17.10;99.90;;;;;;5049945;28;20025;-75
2022/09/08 04:54:52;;;;;;;5.30;3.65;;;17.10;99.90;;;;;;5050197;28;20358;-75
2022/09/08 04:57:18;;;;;;;7.68;4.65;;;17.10;99.90;;;;;;5037141;28;20494;-75
2022/09/08 04:59:43;;;;;;;11.45;5.18;;;17.20;99.90;;;;;;5045107;28;20116;-75
2022/09/08 05:02:10;;;;;;;11.82;4.80;;;17.00;99.90;;;;;;5049172;28;20132;-75
2022/09/08 05:04:37;;;;;;;7.03;5.60;;;18.50;99.90;;;;;;5049864;28;20017;-75
2022/09/08 05:07:03;;;;;;;8.52;5.85;;;17.10;99.90;;;;;;5049636;28;20035;-76
2022/09/08 05:09:28;;;;;;;10.05;6.15;;;17.10;99.90;;;;;;5049552;28;20017;-75
2022/09/08 05:11:54;;;;;;;8.70;5.47;;;17.10;99.90;;;;;;5049452;28;20033;-74
2022/09/08 05:14:19;;;;;;;14.93;6.70;;;17.10;99.90;;;;;;5049405;28;20033;-75
2022/09/08 05:16:45;;;;;;;13.68;6.65;;;17.00;99.90;;;;;;5049175;28;20033;-75
2022/09/08 05:19:12;;;;;;;12.38;6.60;;;17.90;99.90;;;;;;5049132;28;20051;-75
2022/09/08 05:21:38;;;;;;;13.93;6.88;;;17.00;99.90;;;;;;5049488;28;20025;-75
2022/09/08 05:24:05;;;;;;;11.60;6.13;;;17.00;99.90;;;;;;5049327;28;20017;-75
2022/09/08 05:26:31;;;;;;;8.27;6.45;;;17.00;99.90;;;;;;5049359;28;20467;-75
2022/09/08 05:28:57;;;;;;;14.13;7.40;;;17.00;99.90;;;;;;5034872;28;20032;-75
2022/09/08 05:31:26;;;;;;;10.32;7.47;;;16.80;99.90;;;;;;5046120;28;20090;-75
2022/09/08 05:33:54;;;;;;;11.57;7.80;;;17.00;99.90;;;;;;5034766;28;20174;-75
2022/09/08 05:36:28;;;;;;;9.70;6.68;;;16.90;99.90;;;;;;5034678;28;20033;-75
2022/09/08 05:38:54;;;;;;;10.73;7.53;;;16.90;99.90;;;;;;5049188;28;20021;-75
2022/09/08 05:41:20;;;;;;;13.82;7.90;;;16.90;99.90;;;;;;5048747;28;20017;-75
2022/09/08 05:43:46;;;;;;;17.33;7.95;;;16.80;99.90;;;;;;5048816;28;20374;-75
2022/09/08 05:46:12;;;;;;;12.43;7.03;;;17.00;99.90;;;;;;5048613;28;20051;-75
2022/09/08 05:48:38;;;;;;;10.48;6.68;;;16.90;99.90;;;;;;5048934;28;20021;-75
2022/09/08 05:51:19;;;;;;;15.27;8.10;;;16.60;99.90;;;;;;5047267;28;20066;-75
2022/09/08 05:53:46;;;;;;;13.75;7.32;;;16.80;99.90;;;;;;5048775;28;20017;-75
2022/09/08 05:56:13;;;;;;;21.83;8.90;;;16.80;99.90;;;;;;5047954;28;20021;-75
2022/09/08 05:58:39;;;;;;;11.82;9.07;;;16.50;99.90;;;;;;5030417;28;20200;-75
2022/09/08 06:01:10;;;;;;;13.75;7.65;;;16.90;99.90;;;;;;5039724;28;20120;-77
2022/09/08 06:03:36;;;;;;;9.82;6.65;;;16.80;99.90;;;;;;5048554;28;20478;-76
2022/09/08 06:06:10;;;;;;;15.57;8.27;;;16.80;99.90;;;;;;5046944;28;20051;-72
2022/09/08 06:08:38;;;;;;;13.57;7.78;;;18.00;99.90;;;;;;5042844;28;20021;-72
2022/09/08 06:11:04;;;;;;;15.95;8.75;;;17.30;99.90;;;;;;5020621;28;20026;-72
2022/09/08 06:13:32;;;;;;;12.13;7.57;;;16.90;99.90;;;;;;5039924;28;20127;-72
2022/09/08 06:16:07;;;;;;;15.75;8.18;;;16.80;99.90;;;;;;5048746;28;20503;-72
2022/09/08 06:18:36;;;;;;;8.90;7.45;;;17.00;99.90;;;;;;5048387;28;20501;-72
2022/09/08 06:21:10;;;;;;;13.15;9.13;;;17.00;99.90;;;;;;5048610;28;20028;-72
2022/09/08 06:23:36;;;;;;;13.52;8.25;;;17.90;99.90;;;;;;5048698;28;20021;-72
2022/09/08 06:26:58;;;;;;;10.60;8.20;;;16.90;99.90;;;;;;5048543;28;20096;-72
2022/09/08 06:29:29;;;;;;;14.35;7.95;;;17.00;99.90;;;;;;5035967;28;20123;-72
2022/09/08 06:32:02;;;;;;;17.92;8.30;;;17.00;99.90;;;;;;5048449;28;20028;-72
2022/09/08 06:34:36;;;;;;;11.32;7.53;;;17.00;99.90;;;;;;5046941;28;20516;-72
2022/09/08 06:37:07;;;;;;;12.75;8.00;;;17.00;99.90;;;;;;5046554;28;20118;-72
2022/09/08 06:39:58;;;;;;;12.32;8.32;;;16.90;99.90;;;;;;5029904;28;20498;-71
2022/09/08 06:43:06;;;;;;;11.90;7.70;;;16.90;99.90;;;;;;5036757;28;20032;-72
2022/09/08 06:45:37;;;;;;;14.68;8.68;;;17.00;99.90;;;;;;5039737;28;20021;-71
2022/09/08 06:48:15;;;;;;;12.80;7.93;;;18.20;99.90;;;;;;5034906;28;20240;-72
2022/09/08 06:50:48;;;;;;;13.70;7.68;;;17.00;99.90;;;;;;5040592;28;20022;-72
2022/09/08 06:53:22;;;;;;;13.60;8.15;;;16.90;99.90;;;;;;5014753;28;20037;-72
2022/09/08 06:56:07;;;;;;;11.45;8.20;;;16.90;99.90;;;;;;5027986;28;20066;-71
2022/09/08 06:58:33;;;;;;;13.55;7.28;;;17.00;99.90;;;;;;5029106;28;20033;-72
2022/09/08 07:01:17;;;;;;;13.65;8.57;;;19.10;99.90;;;;;;5028616;28;20071;-71
2022/09/08 07:03:58;;;;;;;9.25;7.43;;;16.80;99.90;;;;;;5026497;28;20120;-71
2022/09/08 07:06:27;;;;;;;15.88;8.50;;;17.00;99.90;;;;;;5033846;28;20029;-71
2022/09/08 07:09:17;;;;;;;9.90;8.57;;;17.00;99.90;;;;;;5040478;28;20030;-72
2022/09/08 07:11:48;;;;;;;9.00;8.10;;;16.90;99.90;;;;;;5040991;28;20029;-72
2022/09/08 07:14:19;;;;;;;14.82;8.48;;;16.90;99.90;;;;;;5037136;28;20124;-71
2022/09/08 07:16:53;;;;;;;11.43;9.38;;;16.90;99.90;;;;;;5043150;28;20040;-71
2022/09/08 07:19:22;;;;;;;13.43;10.30;;;16.80;99.90;;;;;;5050067;28;20029;-71
2022/09/08 07:22:02;;;;;;;13.75;9.93;;;17.00;99.90;;;;;;5051347;28;20090;-71
2022/09/08 07:24:34;;;;;;;10.50;9.27;;;17.00;99.90;;;;;;5032329;28;20406;-71
2022/09/08 07:27:04;;;;;;;13.07;9.93;;;18.60;99.90;;;;;;5047920;28;20140;-72
2022/09/08 07:29:43;;;;;;;11.57;9.88;;;17.10;99.90;;;;;;5048435;28;20075;-72
2022/09/08 07:32:17;;;;;;;13.07;8.32;;;17.00;99.90;;;;;;5051330;28;20017;-72
2022/09/08 07:34:54;;;;;;;;;;;17.20;99.90;;;;;;5050904;28;20029;-72
2022/09/08 07:37:27;;;;;;;10.65;9.30;;;19.10;99.90;;;;;;5051226;28;19920;-72
2022/09/08 07:40:16;;;;;;;10.38;8.63;;;17.00;99.90;;;;;;5041795;28;20102;-72
2022/09/08 07:42:43;;;;;;;12.77;9.05;;;17.10;99.90;;;;;;5020404;28;20455;-72
2022/09/08 07:45:12;;;;;;;11.02;9.05;;;17.10;99.90;;;;;;5043496;28;20064;-72
2022/09/08 07:48:16;;;;;;;10.35;8.43;;;17.10;99.90;;;;;;5031424;28;20093;-72
2022/09/08 07:50:54;;;;;;;13.52;8.85;;;17.20;99.90;;;;;;5026853;28;20021;-72
2022/09/08 07:53:48;;;;;;;10.63;8.00;;;17.20;99.90;;;;;;5037631;28;20022;-72
2022/09/08 07:56:21;;;;;;;;;;;17.20;99.90;;;;;;5042078;28;20155;-72
2022/09/08 07:59:01;;;;;;;12.90;8.13;;;17.70;99.90;;;;;;5036308;28;19951;-72
2022/09/08 08:01:40;;;;;;;12.45;8.93;;;17.30;99.90;;;;;;5026629;28;20025;-72
2022/09/08 08:04:40;;;;;;;9.93;8.93;;;17.30;99.90;;;;;;5031446;28;20471;-72
2022/09/08 08:07:12;;;;;;;10.50;9.23;;;17.30;99.90;;;;;;5025000;28;20087;-72
2022/09/08 08:09:59;;;;;;;15.75;9.00;;;17.30;99.90;;;;;;5036281;28;20017;-72
2022/09/08 08:12:33;;;;;;;11.75;9.65;;;17.40;99.90;;;;;;5036523;28;20077;-72
2022/09/08 08:15:32;;;;;;;11.02;9.27;;;17.60;99.90;;;;;;5031063;28;20025;-72
2022/09/08 08:18:15;;;;;;;13.13;9.90;;;17.60;99.90;;;;;;5028165;28;20191;-73
2022/09/08 08:20:50;;;;;;;12.18;10.90;;;17.50;99.90;;;;;;5040891;28;20047;-72
2022/09/08 08:23:45;;;;;;;13.25;10.23;;;17.60;99.90;;;;;;5041761;28;20542;-72
2022/09/08 08:26:37;;;;;;;12.70;9.55;;;17.70;99.90;;;;;;5038253;28;20123;-71
2022/09/08 08:29:17;;;;;;;10.95;9.95;;;17.80;99.90;;;;;;5030245;28;20562;-71
2022/09/08 08:31:51;;;;;;;9.93;8.98;;;17.90;99.90;;;;;;5035748;28;20362;-71
2022/09/08 08:34:26;;;;;;;9.20;8.30;;;18.10;99.90;;;;;;5037906;28;20095;-71
2022/09/08 08:36:55;;;;;;;12.23;10.30;;;18.20;99.90;;;;;;5029118;28;20037;-71
2022/09/08 08:39:23;;;;;;;12.88;9.15;;;18.70;99.90;;;;;;5027785;28;20468;-71
2022/09/08 08:42:29;;;;;;;10.60;8.95;;;18.40;99.90;;;;;;5035551;28;20017;-71
2022/09/08 08:44:57;;;;;;;11.95;8.85;;;18.50;99.90;;;;;;5025807;28;20021;-71
2022/09/08 08:47:52;;;;;;;9.45;7.80;;;18.50;99.90;;;;;;5029485;28;20028;-71
2022/09/08 08:50:31;;;;;;;12.68;10.43;;;18.60;99.90;;;;;;5033585;28;20109;-72
2022/09/08 08:53:02;;;;;;;16.00;10.02;;;18.70;99.90;;;;;;5032903;28;20068;-71
2022/09/08 08:55:44;;;;;;;13.32;11.27;;;18.90;99.90;;;;;;5024314;28;20497;-71
2022/09/08 08:58:48;;;;;;;13.10;9.90;;;18.90;99.90;;;;;;5028868;28;20038;-71
2022/09/08 09:01:37;;;;;;;10.10;9.13;;;18.90;99.90;;;;;;5041116;28;20093;-71
2022/09/08 09:04:11;;;;;;;9.80;8.80;;;19.30;99.90;;;;;;5033610;28;20030;-72
2022/09/08 09:07:02;;;;;;;10.13;8.65;;;19.40;99.90;;;;;;5033000;28;20029;-71
2022/09/08 09:09:59;;;;;;;10.05;7.00;;;19.60;99.90;;;;;;5028610;28;20079;-72
2022/09/08 09:12:45;;;;;;;7.95;7.22;;;19.80;99.90;;;;;;5021917;28;20045;-72
2022/09/08 09:15:22;;;;;;;8.50;7.38;;;20.00;99.90;;;;;;5028849;28;20035;-72
2022/09/08 09:18:09;;;;;;;11.90;8.18;;;19.80;99.90;;;;;;5036470;28;20041;-72
2022/09/08 09:21:07;;;;;;;9.70;8.50;;;19.90;99.90;;;;;;5026933;28;20025;-71
2022/09/08 09:23:43;;;;;;;11.05;7.93;;;19.80;99.90;;;;;;5005476;28;20119;-72
2022/09/08 09:26:19;;;;;;;11.70;7.88;;;19.90;99.90;;;;;;5016547;28;20056;-71
2022/09/08 09:28:57;;;;;;;10.18;8.25;;;19.80;99.90;;;;;;5003932;28;20025;-72
2022/09/08 09:31:49;;;;;;;9.18;7.93;;;19.70;99.90;;;;;;5006032;28;20033;-72
2022/09/08 09:34:35;;;;;;;10.30;7.78;;;19.60;99.90;;;;;;5014070;28;20089;-72
2022/09/08 09:37:15;;;;;;;8.38;7.57;;;19.50;99.90;;;;;;5014245;28;20072;-71
2022/09/08 09:39:59;;;;;;;11.60;8.85;;;20.20;99.90;;;;;;5013909;28;20088;-73
2022/09/08 09:42:35;;;;;;;8.95;8.00;;;19.70;99.90;;;;;;5006925;28;20033;-72
2022/09/08 09:45:21;;;;;;;8.52;6.40;;;19.80;99.90;;;;;;5003753;28;20428;-72
2022/09/08 09:48:07;;;;;;;9.77;5.13;;;19.90;99.90;;;;;;5005710;28;20029;-73
2022/09/08 09:50:49;;;;;;;7.47;4.03;;;19.70;99.90;;;;;;4987303;28;20049;-72
2022/09/08 09:53:44;;;;;;;6.07;5.32;;;19.70;99.90;;;;;;5005091;28;20097;-72
2022/09/08 09:57:07;;;;;;;6.82;4.80;;;19.70;99.90;;;;;;5004131;28;20148;-71
2022/09/08 10:00:00;;;;;;;5.70;4.72;;;19.70;99.90;;;;;;4986191;28;20415;-72
2022/09/08 10:02:28;;;;;;;8.90;6.40;;;19.60;99.90;;;;;;5004070;28;20113;-72
2022/09/08 10:05:15;;;;;;;7.03;6.22;;;19.50;99.90;;;;;;5003164;28;20061;-72
2022/09/08 10:07:59;;;;;;;6.22;5.72;;;19.70;99.90;;;;;;4997080;28;20578;-72
2022/09/08 10:10:28;;;;;;;8.70;7.75;;;19.60;99.90;;;;;;5012489;28;20025;-71
2022/09/08 10:13:17;;;;;;;6.22;5.70;;;19.60;99.90;;;;;;5016794;28;20144;-71
2022/09/08 10:16:23;;;;;;;7.30;5.95;;;19.70;99.90;;;;;;5013135;28;20030;-74
2022/09/08 10:18:52;;;;;;;7.85;6.00;;;19.80;99.90;;;;;;4897494;29;20043;-73
2022/09/08 10:21:24;;;;;;;8.82;6.45;;;19.90;99.90;;;;;;4920707;29;20187;-73
2022/09/08 10:23:59;;;;;;;7.20;6.35;;;20.10;99.90;;;;;;4895364;29;20056;-73
2022/09/08 10:26:43;;;;;;;7.75;6.50;;;20.40;99.90;;;;;;4917397;29;20050;-73
2022/09/08 10:29:31;;;;;;;9.88;6.57;;;20.40;99.90;;;;;;4912317;29;20070;-73
2022/09/08 10:32:34;;;;;;;9.38;5.90;;;20.50;99.90;;;;;;4912520;29;20029;-72
2022/09/08 10:35:25;;;;;;;5.93;5.10;;;20.50;99.90;;;;;;4946312;28;20094;-73
2022/09/08 10:38:27;;;;;;;4.18;3.78;;;20.50;99.90;;;;;;4949387;28;20043;-72
2022/09/08 10:40:56;;;;;;;6.65;3.63;;;20.60;99.90;;;;;;4945542;28;20066;-72
2022/09/08 10:43:46;;;;;;;5.60;3.72;;;20.50;99.90;;;;;;4947959;28;20031;-72
2022/09/08 10:46:58;;;;;;;5.10;3.33;;;20.60;99.90;;;;;;4935229;29;20051;-72
2022/09/08 10:49:35;;;;;;;5.72;3.78;;;20.60;99.90;;;;;;4949235;28;20090;-72
2022/09/08 10:52:13;;;;;;;4.20;3.80;;;20.50;99.90;;;;;;4966718;28;20057;-73
2022/09/08 10:54:58;;;;;;;6.05;3.28;;;20.30;99.90;;;;;;5031583;28;20013;-73
2022/09/08 10:57:50;;;;;;;10.13;3.38;;;20.10;99.90;;;;;;5027380;28;20104;-72
2022/09/08 11:00:19;;;;;;;6.60;3.72;;;20.00;99.90;;;;;;5023304;28;20030;-72
2022/09/08 11:03:05;;;;;;;3.95;3.25;;;21.10;99.90;;;;;;5027985;28;20148;-72
2022/09/08 11:05:44;;;;;;;4.60;3.00;;;20.20;99.90;;;;;;5031466;28;20026;-74
2022/09/08 11:08:51;;;;;;;4.97;2.40;;;20.40;99.90;;;;;;5037556;28;20482;-74
2022/09/08 11:11:36;;;;;;;5.80;3.15;;;20.60;99.90;;;;;;5040216;28;20021;-74
2022/09/08 11:14:30;;;;;;;5.43;3.95;;;20.70;99.90;;;;;;5044136;28;20516;-74
2022/09/08 11:17:11;;;;;;;3.35;3.05;;;20.70;99.90;;;;;;5041500;28;20029;-74
2022/09/08 11:19:48;;;;;;;6.40;2.22;;;20.70;99.90;;;;;;5042061;28;20032;-74
2022/09/08 11:22:56;;;;;;;4.70;2.08;;;20.80;99.90;;;;;;5041569;28;20124;-73
2022/09/08 11:25:56;;;;;;;4.28;1.75;;;20.70;99.90;;;;;;5026436;28;20052;-73
2022/09/08 11:28:41;;;;;;;6.97;1.55;;;20.70;99.90;;;;;;5040571;28;20098;-73
2022/09/08 11:31:25;;;;;;;4.55;1.63;;;20.70;99.90;;;;;;5035212;28;20358;-73
2022/09/08 11:34:15;;;;;;;3.58;1.38;;;20.80;99.90;;;;;;5040336;28;20124;-74
2022/09/08 11:37:07;;;;;;;5.93;2.22;;;20.60;99.80;;;;;;5023380;28;20104;-74
2022/09/08 11:39:33;;;;;;;4.78;1.55;;;20.70;99.40;;;;;;5028186;28;20148;-73
2022/09/08 11:42:32;;;;;;;3.45;1.50;;;20.60;99.50;;;;;;5035760;28;20126;-73
2022/09/08 11:45:22;;;;;;;5.75;1.70;;;22.20;99.70;;;;;;5021399;28;20021;-73
2022/09/08 11:48:09;;;;;;;3.80;1.27;;;20.80;98.90;;;;;;5034005;28;20061;-72
2022/09/08 11:50:54;;;;;;;4.00;1.60;;;20.90;99.00;;;;;;5030012;28;20017;-72
2022/09/08 11:53:46;;;;;;;3.92;1.50;;;20.90;98.50;;;;;;5040971;28;20547;-72
2022/09/08 11:56:27;;;;;;;6.35;1.75;;;20.90;98.90;;;;;;5031712;28;20026;-72
2022/09/08 11:59:34;;;;;;;5.65;2.08;;;20.90;98.80;;;;;;5029781;28;20518;-72
2022/09/08 12:02:28;;;;;;;3.35;1.33;;;20.90;98.80;;;;;;5031673;28;20040;-73
2022/09/08 12:05:18;;;;;;;6.10;1.58;;;21.10;98.60;;;;;;5035232;28;20115;-73
2022/09/08 12:08:15;;;;;;;8.02;1.70;;;21.20;98.20;;;;;;5026878;28;20021;-73
2022/09/08 12:10:46;;;;;;;6.47;1.63;;;21.10;97.70;;;;;;5029598;28;20037;-73
2022/09/08 12:13:25;;;;;;;5.63;1.30;;;21.20;97.50;;;;;;5035180;28;20055;-73
2022/09/08 12:16:18;;;;;;;5.20;1.55;;;21.30;97.30;;;;;;5029985;28;20068;-73
2022/09/08 12:18:59;;;;;;;9.93;1.63;;;21.50;97.20;;;;;;5039635;28;20040;-73
2022/09/08 12:22:00;;;;;;;8.38;1.80;;;21.70;97.60;;;;;;5040722;28;20500;-73
2022/09/08 12:24:48;;;;;;;7.28;1.33;;;21.90;96.40;;;;;;5037010;28;20178;-73
2022/09/08 12:27:42;;;;;;;5.70;1.05;;;21.90;96.10;;;;;;5027917;28;20064;-74
2022/09/08 12:30:39;;;;;;;6.65;1.40;;;21.80;95.80;;;;;;5026951;28;20377;-73
2022/09/08 12:33:14;;;;;;;8.38;1.27;;;21.80;96.70;;;;;;5037173;28;20029;-73
2022/09/08 12:36:05;;;;;;;5.20;1.25;;;21.80;96.40;;;;;;5031139;28;20052;-73
2022/09/08 12:39:00;;;;;;;3.42;1.00;;;21.90;95.80;;;;;;5042852;28;20044;-71
2022/09/08 12:42:03;;;;;;;6.60;1.33;;;21.70;95.70;;;;;;5039811;28;20473;-71
2022/09/08 12:45:12;;;;;;;3.63;0.75;;;21.70;95.60;;;;;;5019429;28;20068;-71
2022/09/08 12:47:46;;;;;;;4.70;1.02;;;21.80;95.80;;;;;;5040130;28;20474;-71
2022/09/08 12:50:43;;;;;;;3.83;1.13;;;21.90;95.60;;;;;;5034652;28;20108;-71
2022/09/08 12:53:12;;;;;;;4.45;0.85;;;21.90;95.60;;;;;;5029337;28;20087;-71
2022/09/08 12:55:53;;;;;;;5.38;1.35;;;22.20;95.90;;;;;;5031372;28;20039;-72
2022/09/08 12:58:23;;;;;;;5.40;1.50;;;22.00;95.60;;;;;;5039892;28;20035;-72
2022/09/08 13:01:01;;;;;;;6.30;1.13;;;21.90;95.50;;;;;;5040538;28;20021;-71
2022/09/08 13:03:28;;;;;;;4.63;0.85;;;22.00;95.40;;;;;;5028563;28;20029;-72
2022/09/08 13:06:17;;;;;;;5.30;1.08;;;21.90;94.90;;;;;;5043441;28;20021;-72
2022/09/08 13:08:58;;;;;;;5.43;1.35;;;21.90;94.80;;;;;;5038728;28;20021;-72
2022/09/08 13:11:36;;;;;;;3.00;0.80;;;21.90;94.70;;;;;;5034599;28;20016;-73
2022/09/08 13:14:09;;;;;;;3.80;0.82;;;21.90;95.20;;;;;;5042741;28;20434;-72
2022/09/08 13:16:50;;;;;;;7.13;1.02;;;22.00;94.90;;;;;;5040010;28;20083;-71
2022/09/08 13:19:29;;;;;;;4.20;0.90;;;22.20;93.60;;;;;;5044746;28;20025;-72
2022/09/08 13:22:23;;;;;;;4.45;1.08;;;22.60;93.70;;;;;;5038370;28;20438;-72
2022/09/08 13:24:48;;;;;;;4.65;0.88;;;22.70;93.30;;;;;;5038086;28;20032;-72
2022/09/08 13:27:26;;;;;;;3.92;1.20;;;22.80;93.70;;;;;;5038341;28;20029;-72
2022/09/08 13:29:57;;;;;;;4.05;0.93;;;22.80;93.00;;;;;;5028002;28;20056;-72
2022/09/08 13:32:45;;;;;;;5.82;1.08;;;22.60;93.00;;;;;;5017986;28;20033;-72